createdAt,value
2023-03-26T00:01:50.770Z,48.32
2023-03-26T00:06:51.566Z,48.32
2023-03-26T00:11:52.650Z,48.38
2023-03-26T00:16:53.475Z,48.43
2023-03-26T00:21:54.531Z,48.46
2023-03-26T00:26:54.859Z,48.44
2023-03-26T00:31:55.960Z,48.46
2023-03-26T00:36:56.770Z,48.47
2023-03-26T00:41:57.582Z,48.54
2023-03-26T00:46:58.650Z,48.55
2023-03-26T00:51:59.476Z,48.53
2023-03-26T00:57:00.349Z,48.54
2023-03-26T01:02:01.438Z,48.54
2023-03-26T01:07:02.234Z,48.54
2023-03-26T01:12:03.059Z,48.64
2023-03-26T01:17:04.161Z,48.59
2023-03-26T01:22:04.970Z,48.59
2023-03-26T01:27:05.783Z,48.62
2023-03-26T01:32:06.863Z,48.68
2023-03-26T01:37:07.712Z,48.70
2023-03-26T01:42:08.555Z,48.64
2023-03-26T01:47:09.672Z,48.64
2023-03-26T01:52:10.502Z,48.67
2023-03-26T01:57:11.375Z,48.75
2023-03-26T02:02:12.588Z,48.89
2023-03-26T02:07:13.412Z,49.15
2023-03-26T02:12:14.255Z,49.22
2023-03-26T02:17:15.339Z,49.28
2023-03-26T02:22:16.187Z,49.39
2023-03-26T02:27:17.036Z,49.52
2023-03-26T02:32:18.149Z,49.62
2023-03-26T02:37:19.088Z,49.72
2023-03-26T02:42:19.920Z,49.79
2023-03-26T02:47:21.066Z,49.83
2023-03-26T02:52:21.924Z,49.87
2023-03-26T02:57:22.784Z,49.87
2023-03-26T03:02:23.908Z,49.91
2023-03-26T03:07:24.742Z,49.89
2023-03-26T03:12:25.570Z,49.92
2023-03-26T03:17:26.694Z,49.94
2023-03-26T03:22:27.517Z,49.99
2023-03-26T03:27:28.366Z,49.95
2023-03-26T03:32:29.510Z,49.87
2023-03-26T03:37:30.328Z,48.47
2023-03-26T03:42:31.290Z,47.94
2023-03-26T03:47:32.352Z,47.37
2023-03-26T03:52:33.138Z,46.97
2023-03-26T03:57:33.965Z,46.72
2023-03-26T04:02:35.302Z,46.55
2023-03-26T04:07:35.626Z,46.40
2023-03-26T04:12:36.437Z,46.26
2023-03-26T04:17:37.289Z,46.16
2023-03-26T04:22:38.310Z,46.03
2023-03-26T04:27:39.123Z,45.95
2023-03-26T04:32:39.900Z,45.84
2023-03-26T04:37:40.918Z,45.77
2023-03-26T04:42:41.808Z,45.65
2023-03-26T04:47:42.584Z,45.58
2023-03-26T04:52:45.326Z,45.46
2023-03-26T04:57:44.284Z,45.39
2023-03-26T05:02:45.092Z,45.35
2023-03-26T05:07:46.050Z,45.30
2023-03-26T05:12:46.932Z,45.32
2023-03-26T05:17:47.721Z,45.27
2023-03-26T05:22:48.720Z,45.25
2023-03-26T05:27:49.484Z,45.19
2023-03-26T05:32:50.364Z,45.23
2023-03-26T05:37:51.481Z,45.47
2023-03-26T05:42:52.251Z,45.65
2023-03-26T05:47:53.060Z,45.64
2023-03-26T05:52:54.062Z,45.35
2023-03-26T05:57:54.824Z,45.10
2023-03-26T06:02:56.383Z,45.48
2023-03-26T06:07:56.106Z,45.91
2023-03-26T06:12:56.848Z,45.86
2023-03-26T06:17:57.908Z,45.82
2023-03-26T06:22:58.645Z,46.26
2023-03-26T06:27:59.383Z,45.97
2023-03-26T06:33:00.460Z,45.33
2023-03-26T06:38:01.172Z,45.43
2023-03-26T06:43:08.133Z,45.44
2023-03-26T06:48:03.726Z,45.33
2023-03-26T06:53:03.373Z,45.11
2023-03-26T06:58:04.334Z,44.96
2023-03-26T07:03:05.068Z,44.94
2023-03-26T07:08:05.723Z,44.83
2023-03-26T07:13:06.679Z,45.06
2023-03-26T07:18:07.399Z,44.33
2023-03-26T07:23:08.090Z,44.35
2023-03-26T07:28:09.044Z,44.43
2023-03-26T07:33:09.720Z,44.30
2023-03-26T07:38:10.428Z,44.10
2023-03-26T07:43:11.337Z,44.08
2023-03-26T07:48:12.013Z,44.06
2023-03-26T07:53:12.688Z,43.87
2023-03-26T07:58:13.613Z,43.70
2023-03-26T08:03:14.457Z,43.69
2023-03-26T08:08:15.213Z,43.44
2023-03-26T08:13:16.179Z,43.41
2023-03-26T08:18:16.865Z,43.52
2023-03-26T08:23:17.543Z,43.73
2023-03-26T08:28:18.501Z,43.71
2023-03-26T08:33:19.240Z,43.77
2023-03-26T08:38:19.906Z,43.94
2023-03-26T08:43:20.886Z,43.91
2023-03-26T08:48:21.590Z,44.01
2023-03-26T08:53:22.310Z,44.35
2023-03-26T08:58:23.278Z,44.49
2023-03-26T09:03:24.101Z,44.93
2023-03-26T09:08:24.802Z,44.70
2023-03-26T09:13:26.612Z,44.55
2023-03-26T09:18:26.295Z,44.67
2023-03-26T09:23:27.244Z,43.84
2023-03-26T09:28:27.928Z,44.08
2023-03-26T09:33:28.613Z,43.18
2023-03-26T09:38:29.578Z,43.02
2023-03-26T09:43:30.258Z,43.04
2023-03-26T09:48:30.930Z,43.26
2023-03-26T09:53:31.862Z,43.00
2023-03-26T09:58:32.526Z,42.89
2023-03-26T10:03:33.372Z,42.30
2023-03-26T10:08:34.234Z,42.27
2023-03-26T10:13:34.887Z,42.32
2023-03-26T10:18:35.549Z,42.32
2023-03-26T10:23:36.467Z,42.55
2023-03-26T10:28:37.126Z,42.40
2023-03-26T10:33:37.776Z,42.73
2023-03-26T10:38:38.671Z,43.21
2023-03-26T10:43:39.338Z,43.32
2023-03-26T10:48:40.007Z,43.71
2023-03-26T10:53:40.910Z,43.92
2023-03-26T10:58:49.483Z,44.51
2023-03-26T11:03:43.315Z,43.90
2023-03-26T11:08:42.956Z,44.06
2023-03-26T11:13:43.827Z,43.77
2023-03-26T11:18:44.680Z,43.79
2023-03-26T11:23:45.277Z,43.49
2023-03-26T11:29:03.241Z,43.50
2023-03-26T11:33:48.005Z,43.31
2023-03-26T11:38:47.713Z,42.43
2023-03-26T11:43:48.631Z,42.05
2023-03-26T11:48:49.278Z,41.85
2023-03-26T11:53:49.948Z,42.23
2023-03-26T11:58:50.853Z,42.06
2023-03-26T12:03:51.493Z,41.90
2023-03-26T12:08:52.153Z,41.65
2023-03-26T12:13:53.116Z,41.59
2023-03-26T12:18:53.769Z,41.86
2023-03-26T12:23:54.422Z,41.57
2023-03-26T12:28:55.337Z,41.47
2023-03-26T12:33:58.087Z,41.63
2023-03-26T12:39:17.006Z,41.67
2023-03-26T12:44:50.756Z,41.58
2023-03-26T12:48:59.642Z,42.13
2023-03-26T12:53:59.551Z,42.69
2023-03-26T12:59:00.225Z,43.18
2023-03-26T13:04:01.155Z,43.30
2023-03-26T13:09:01.837Z,43.72
2023-03-26T13:14:02.541Z,43.80
2023-03-26T13:19:03.479Z,43.75
2023-03-26T13:24:04.362Z,43.95
2023-03-26T13:29:05.006Z,43.95
2023-03-26T13:34:05.938Z,44.21
2023-03-26T13:39:06.568Z,44.19
2023-03-26T13:44:07.213Z,44.30
2023-03-26T13:49:08.108Z,44.66
2023-03-26T13:54:08.791Z,44.58
2023-03-26T13:59:09.408Z,44.61
2023-03-26T14:04:10.347Z,44.51
2023-03-26T14:09:11.048Z,43.98
2023-03-26T14:14:11.697Z,43.36
2023-03-26T14:19:12.576Z,42.98
2023-03-26T14:24:13.178Z,42.85
2023-03-26T14:29:13.799Z,42.44
2023-03-26T14:34:14.681Z,42.58
2023-03-26T14:39:15.308Z,42.71
2023-03-26T14:44:15.922Z,42.96
2023-03-26T14:49:16.834Z,43.22
2023-03-26T14:54:17.461Z,43.51
2023-03-26T14:59:18.100Z,43.84
2023-03-26T15:04:18.988Z,43.63
2023-03-26T15:09:19.579Z,43.18
2023-03-26T15:14:20.187Z,43.01
2023-03-26T15:19:21.061Z,42.53
2023-03-26T15:24:21.704Z,42.44
2023-03-26T15:29:22.323Z,42.29
2023-03-26T15:34:23.246Z,42.43
2023-03-26T15:39:23.889Z,42.41
2023-03-26T15:44:25.527Z,42.42
2023-03-26T15:49:25.261Z,42.49
2023-03-26T15:54:26.161Z,42.42
2023-03-26T15:59:26.813Z,42.30
2023-03-26T16:04:27.432Z,42.27
2023-03-26T16:09:28.282Z,42.08
2023-03-26T16:14:28.930Z,41.81
2023-03-26T16:19:29.554Z,42.09
2023-03-26T16:24:30.417Z,42.33
2023-03-26T16:29:31.041Z,42.53
2023-03-26T16:34:31.684Z,42.65
2023-03-26T16:39:32.073Z,42.64
2023-03-26T16:44:32.965Z,42.70
2023-03-26T16:49:33.608Z,42.69
2023-03-26T16:54:34.616Z,42.65
2023-03-26T16:59:34.723Z,42.91
2023-03-26T17:04:35.593Z,43.10
2023-03-26T17:09:36.204Z,43.17
2023-03-26T17:14:36.827Z,43.20
2023-03-26T17:19:37.692Z,43.11
2023-03-26T17:24:38.338Z,43.16
2023-03-26T17:29:38.944Z,43.16
2023-03-26T17:34:40.121Z,43.14
2023-03-26T17:39:40.305Z,43.07
2023-03-26T17:44:40.954Z,43.14
2023-03-26T17:49:41.562Z,43.30
2023-03-26T17:54:42.465Z,43.33
2023-03-26T17:59:43.107Z,43.34
2023-03-26T18:04:43.728Z,43.30
2023-03-26T18:09:44.615Z,43.25
2023-03-26T18:14:45.365Z,43.11
2023-03-26T18:19:45.938Z,43.08
2023-03-26T18:24:46.829Z,43.07
2023-03-26T18:29:47.455Z,43.17
2023-03-26T18:34:48.082Z,43.28
2023-03-26T18:39:48.971Z,43.47
2023-03-26T18:44:49.600Z,43.54
2023-03-26T18:49:50.220Z,43.60
2023-03-26T18:54:51.104Z,43.77
2023-03-26T18:59:51.764Z,43.83
2023-03-26T19:04:52.413Z,43.80
2023-03-26T19:09:53.307Z,43.80
2023-03-26T19:14:53.945Z,43.84
2023-03-26T19:19:54.567Z,43.76
2023-03-26T19:24:55.522Z,43.91
2023-03-26T19:29:56.164Z,43.80
2023-03-26T19:34:56.818Z,43.82
2023-03-26T19:39:57.714Z,43.84
2023-03-26T19:44:58.355Z,43.87
2023-03-26T19:49:58.986Z,43.92
2023-03-26T19:55:00.639Z,43.88
2023-03-26T20:00:00.498Z,43.93
2023-03-26T20:05:01.153Z,44.00
2023-03-26T20:10:02.939Z,44.10
2023-03-26T20:15:02.745Z,44.28
2023-03-26T20:20:03.394Z,44.60
2023-03-26T20:25:04.523Z,44.83
2023-03-26T20:30:05.932Z,45.03
2023-03-26T20:35:05.594Z,45.16
2023-03-26T20:40:06.251Z,45.19
2023-03-26T20:45:07.164Z,45.41
2023-03-26T20:50:07.862Z,45.60
2023-03-26T20:55:08.606Z,46.04
2023-03-26T21:00:09.573Z,46.35
2023-03-26T21:05:10.295Z,46.65
2023-03-26T21:10:11.042Z,46.90
2023-03-26T21:15:22.421Z,46.96
2023-03-26T21:20:13.880Z,47.18
2023-03-26T21:25:13.636Z,47.38
2023-03-26T21:30:14.644Z,47.64
2023-03-26T21:35:15.460Z,47.72
2023-03-26T21:40:16.184Z,47.76
2023-03-26T21:45:17.200Z,47.93
2023-03-26T21:50:17.998Z,47.95
2023-03-26T21:55:18.728Z,48.04
2023-03-26T22:00:19.970Z,48.07
2023-03-26T22:05:20.483Z,48.21
2023-03-26T22:10:21.252Z,48.22
2023-03-26T22:15:22.313Z,48.29
2023-03-26T22:20:23.110Z,48.32
2023-03-26T22:25:23.947Z,48.41
2023-03-26T22:30:24.984Z,48.48
2023-03-26T22:35:25.783Z,48.52
2023-03-26T22:40:26.561Z,48.54
2023-03-26T22:45:27.624Z,48.56
2023-03-26T22:50:28.428Z,48.63
2023-03-26T22:55:29.793Z,48.68
2023-03-26T23:00:29.909Z,48.68
2023-03-26T23:05:30.999Z,48.71
2023-03-26T23:10:31.772Z,48.78
2023-03-26T23:15:32.592Z,48.77
2023-03-26T23:20:33.680Z,48.85
2023-03-26T23:25:34.497Z,48.84
2023-03-26T23:30:35.299Z,48.94
2023-03-26T23:35:36.433Z,48.93
2023-03-26T23:40:37.235Z,48.97
2023-03-26T23:45:38.112Z,49.03
2023-03-26T23:50:39.161Z,49.12
2023-03-26T23:55:40.003Z,49.16
